Anchor, Mississippi
Current Conditions -  °F | °C
As of 12:15 AM on Wednesday 26 Nov 2014 (Local Time) from KSTF Reporting Station
NA  
Wind Chill: -2°   Ceiling: NA
Heat Index: -2°   Visibility: NA
Dew Point: -2°   Wind: 0mph
Humidity: 100%   Direction: NA
Pressure: 30.17"   Gusts: NA
Location:  33.7962°N, 89.0553°W
Report Text: KSTF 260615Z AUTO 00000KT M02/M02 A3017 RMK AO2 PWINO
Loading
Personal Weather Stations






























Interactive Weather Map New forecast layout! Learn more

10-Day Weather Forecast

Advertisements
Track Severe Weather on mobile